createdAt,value
2018-04-19T00:01:23.598Z,98878.22
2018-04-19T00:03:54.609Z,98876.79
2018-04-19T00:06:25.635Z,98868.24
2018-04-19T00:08:56.644Z,98867.67
2018-04-19T00:11:27.724Z,98870.02
2018-04-19T00:13:58.696Z,98859.34
2018-04-19T00:16:29.729Z,98857.39
2018-04-19T00:19:00.754Z,98858.87
2018-04-19T00:21:31.775Z,98857.09
2018-04-19T00:24:02.833Z,98854.95
2018-04-19T00:26:33.859Z,98851.27
2018-04-19T00:29:04.896Z,98849.60
2018-04-19T00:31:35.904Z,98846.95
2018-04-19T00:34:06.883Z,98855.41
2018-04-19T00:36:37.925Z,98853.46
2018-04-19T00:39:08.928Z,98853.28
2018-04-19T00:41:39.967Z,98852.28
2018-04-19T00:44:10.972Z,98847.68
2018-04-19T00:46:42.014Z,98843.75
2018-04-19T00:49:12.987Z,98847.66
2018-04-19T00:51:44.025Z,98851.16
2018-04-19T00:54:15.004Z,98850.79
2018-04-19T00:56:46.004Z,98855.58
2018-04-19T00:59:17.009Z,98845.39
2018-04-19T01:01:47.964Z,98849.00
2018-04-19T01:04:18.914Z,98847.83
2018-04-19T01:06:49.854Z,98850.68
2018-04-19T01:09:20.861Z,98844.38
2018-04-19T01:11:51.894Z,98842.68
2018-04-19T01:14:22.911Z,98847.12
2018-04-19T01:16:53.952Z,98840.58
2018-04-19T01:19:24.989Z,98842.77
2018-04-19T01:21:56.036Z,98845.50
2018-04-19T01:24:27.058Z,98838.30
2018-04-19T01:26:58.037Z,98842.57
2018-04-19T01:29:29.054Z,98848.50
2018-04-19T01:32:00.106Z,98844.75
2018-04-19T01:34:31.142Z,98842.34
2018-04-19T01:37:02.180Z,98837.16
2018-04-19T01:39:33.166Z,98841.38
2018-04-19T01:42:04.192Z,98842.31
2018-04-19T01:44:35.216Z,98841.21
2018-04-19T01:47:06.240Z,98840.00
2018-04-19T01:49:37.205Z,98838.68
2018-04-19T01:52:08.218Z,98849.79
2018-04-19T01:54:39.268Z,98848.30
2018-04-19T01:57:10.307Z,98846.77
2018-04-19T01:59:41.378Z,98846.91
2018-04-19T02:02:12.376Z,98849.49
2018-04-19T02:04:43.393Z,98853.38
2018-04-19T02:07:14.421Z,98845.51
2018-04-19T02:09:46.013Z,98848.44
2018-04-19T02:12:17.035Z,98850.02
2018-04-19T02:14:48.088Z,98845.70
2018-04-19T02:17:19.094Z,98848.19
2018-04-19T02:19:50.088Z,98850.95
2018-04-19T02:22:21.081Z,98848.94
2018-04-19T02:24:52.161Z,98846.34
2018-04-19T02:27:23.195Z,98849.98
2018-04-19T02:29:54.173Z,98850.70
2018-04-19T02:32:25.180Z,98843.90
2018-04-19T02:34:56.225Z,98844.13
2018-04-19T02:37:27.225Z,98834.91
2018-04-19T02:39:58.199Z,98839.40
2018-04-19T02:42:29.263Z,98835.95
2018-04-19T02:45:00.347Z,98836.63
2018-04-19T02:47:31.431Z,98836.69
2018-04-19T02:50:02.546Z,98838.43
2018-04-19T02:52:33.560Z,98831.05
2018-04-19T02:55:04.545Z,98831.73
2018-04-19T02:57:35.518Z,98827.53
2018-04-19T03:00:06.588Z,98827.73
2018-04-19T03:02:37.592Z,98829.69
2018-04-19T03:05:08.567Z,98830.97
2018-04-19T03:07:39.588Z,98827.02
2018-04-19T03:10:10.601Z,98831.80
2018-04-19T03:12:41.626Z,98827.02
2018-04-19T03:15:12.623Z,98828.03
2018-04-19T03:17:43.609Z,98832.92
2018-04-19T03:20:14.636Z,98828.66
2018-04-19T03:22:45.647Z,98830.18
2018-04-19T03:25:16.704Z,98830.86
2018-04-19T03:27:47.690Z,98821.67
2018-04-19T03:30:19.082Z,98820.87
2018-04-19T03:32:50.161Z,98824.44
2018-04-19T03:35:21.145Z,98818.45
2018-04-19T03:37:52.142Z,98818.67
2018-04-19T03:40:23.137Z,98812.01
2018-04-19T03:42:54.166Z,98813.91
2018-04-19T03:45:25.200Z,98814.55
2018-04-19T03:47:56.227Z,98818.22
2018-04-19T03:50:27.268Z,98809.36
2018-04-19T03:52:58.327Z,98816.84
2018-04-19T03:55:29.364Z,98810.33
2018-04-19T03:58:00.382Z,98816.44
2018-04-19T04:00:31.426Z,98820.66
2018-04-19T04:03:02.513Z,98810.22
2018-04-19T04:05:33.515Z,98813.49
2018-04-19T04:08:04.529Z,98814.41
2018-04-19T04:10:35.539Z,98816.78
2018-04-19T04:13:06.541Z,98813.91
2018-04-19T04:15:37.587Z,98812.44
2018-04-19T04:18:20.940Z,98815.09
2018-04-19T04:21:04.132Z,98814.28
2018-04-19T04:23:47.400Z,98823.17
2018-04-19T04:26:18.473Z,98821.19
2018-04-19T04:28:49.540Z,98821.95
2018-04-19T04:31:20.565Z,98822.50
2018-04-19T04:33:51.587Z,98821.88
2018-04-19T04:36:22.572Z,98822.32
2018-04-19T04:38:53.598Z,98825.23
2018-04-19T04:41:24.580Z,98825.52
2018-04-19T04:43:55.597Z,98824.68
2018-04-19T04:46:26.634Z,98821.05
2018-04-19T04:48:57.632Z,98820.16
2018-04-19T04:51:28.667Z,98816.58
2018-04-19T04:53:59.688Z,98824.75
2018-04-19T04:56:30.719Z,98818.72
2018-04-19T04:59:01.743Z,98816.84
2018-04-19T05:01:32.767Z,98809.75
2018-04-19T05:04:03.771Z,98813.72
2018-04-19T05:06:34.805Z,98811.07
2018-04-19T05:09:05.888Z,98814.55
2018-04-19T05:11:36.922Z,98815.95
2018-04-19T05:14:07.944Z,98813.15
2018-04-19T05:16:38.953Z,98815.94
2018-04-19T05:19:10.008Z,98815.75
2018-04-19T05:21:40.986Z,98818.00
2018-04-19T05:24:12.001Z,98821.53
2018-04-19T05:26:43.043Z,98821.48
2018-04-19T05:29:14.075Z,98826.16
2018-04-19T05:31:45.150Z,98827.78
2018-04-19T05:34:16.116Z,98825.08
2018-04-19T05:36:47.126Z,98825.48
2018-04-19T05:39:18.136Z,98820.23
2018-04-19T05:41:49.123Z,98825.99
2018-04-19T05:44:20.098Z,98823.34
2018-04-19T05:46:51.122Z,98824.78
2018-04-19T05:49:22.130Z,98826.44
2018-04-19T05:51:53.152Z,98827.28
2018-04-19T05:54:24.209Z,98826.56
2018-04-19T05:56:55.190Z,98827.10
2018-04-19T05:59:26.202Z,98827.13
2018-04-19T06:01:57.209Z,98827.73
2018-04-19T06:04:28.245Z,98823.79
2018-04-19T06:06:59.216Z,98825.92
2018-04-19T06:09:30.265Z,98830.20
2018-04-19T06:12:01.270Z,98824.00
2018-04-19T06:14:32.868Z,98823.14
2018-04-19T06:17:03.906Z,98829.17
2018-04-19T06:19:34.972Z,98822.64
2018-04-19T06:22:06.056Z,98818.36
2018-04-19T06:24:37.016Z,98819.25
2018-04-19T06:27:08.024Z,98821.84
2018-04-19T06:29:39.077Z,98824.86
2018-04-19T06:32:10.114Z,98818.00
2018-04-19T06:34:41.166Z,98820.81
2018-04-19T06:37:12.181Z,98818.06
2018-04-19T06:39:43.190Z,98810.65
2018-04-19T06:42:14.194Z,98803.30
2018-04-19T06:44:45.215Z,98795.54
2018-04-19T06:47:16.287Z,98791.61
2018-04-19T06:49:47.279Z,98785.12
2018-04-19T06:52:18.304Z,98784.17
2018-04-19T06:54:49.336Z,98782.13
2018-04-19T06:57:20.366Z,98784.88
2018-04-19T06:59:51.447Z,98781.90
2018-04-19T07:02:22.405Z,98782.39
2018-04-19T07:04:53.460Z,98777.75
2018-04-19T07:07:24.440Z,98780.95
2018-04-19T07:09:55.436Z,98782.98
2018-04-19T07:12:26.444Z,98770.67
2018-04-19T07:14:58.000Z,98781.85
2018-04-19T07:17:29.009Z,98776.33
2018-04-19T07:20:00.025Z,98775.02
2018-04-19T07:22:31.100Z,98777.64
2018-04-19T07:25:02.175Z,98773.25
2018-04-19T07:27:33.227Z,98778.72
2018-04-19T07:30:04.283Z,98780.59
2018-04-19T07:32:35.318Z,98772.09
2018-04-19T07:35:06.346Z,98770.09
2018-04-19T07:37:37.311Z,98768.19
2018-04-19T07:40:08.342Z,98768.55
2018-04-19T07:42:39.325Z,98764.31
2018-04-19T07:45:10.356Z,98766.16
2018-04-19T07:47:41.360Z,98757.80
2018-04-19T07:50:12.424Z,98756.05
2018-04-19T07:52:43.433Z,98754.55
2018-04-19T07:55:14.458Z,98751.40
2018-04-19T07:57:45.490Z,98749.25
2018-04-19T08:00:16.539Z,98755.07
2018-04-19T08:02:47.533Z,98753.89
2018-04-19T08:05:18.615Z,98751.55
2018-04-19T08:07:49.656Z,98752.61
2018-04-19T08:10:20.756Z,98739.43
2018-04-19T08:12:51.803Z,98746.95
2018-04-19T08:15:22.806Z,98742.50
2018-04-19T08:17:53.886Z,98744.53
2018-04-19T08:20:24.910Z,98743.02
2018-04-19T08:22:55.997Z,98745.05
2018-04-19T08:25:27.041Z,98743.32
2018-04-19T08:27:58.072Z,98742.41
2018-04-19T08:30:29.055Z,98740.48
2018-04-19T08:33:00.091Z,98738.59
2018-04-19T08:35:31.114Z,98744.94
2018-04-19T08:38:02.105Z,98741.30
2018-04-19T08:40:33.095Z,98742.50
2018-04-19T08:43:04.134Z,98738.23
2018-04-19T08:45:35.328Z,98736.48
2018-04-19T08:48:06.637Z,98727.99
2018-04-19T08:50:37.712Z,98719.45
2018-04-19T08:53:08.768Z,98733.53
2018-04-19T08:55:39.803Z,98733.81
2018-04-19T08:58:10.786Z,98735.21
2018-04-19T09:00:41.851Z,98733.83
2018-04-19T09:03:12.953Z,98730.34
2018-04-19T09:05:43.941Z,98736.63
2018-04-19T09:08:15.079Z,98725.55
2018-04-19T09:10:46.081Z,98728.53
2018-04-19T09:13:17.145Z,98730.30
2018-04-19T09:15:48.191Z,98726.73
2018-04-19T09:18:19.202Z,98723.17
2018-04-19T09:20:50.240Z,98729.32
2018-04-19T09:23:21.264Z,98724.83
2018-04-19T09:25:52.287Z,98730.44
2018-04-19T09:28:23.367Z,98724.62
2018-04-19T09:30:54.407Z,98727.09
2018-04-19T09:33:25.375Z,98720.44
2018-04-19T09:35:56.392Z,98717.62
2018-04-19T09:38:27.350Z,98725.85
2018-04-19T09:40:58.341Z,98720.59
2018-04-19T09:43:29.398Z,98721.20
2018-04-19T09:46:00.387Z,98719.21
2018-04-19T09:48:31.505Z,98713.95
2018-04-19T09:51:02.539Z,98715.52
2018-04-19T09:53:33.605Z,98700.54
2018-04-19T09:56:04.647Z,98711.34
2018-04-19T09:58:35.647Z,98706.53
2018-04-19T10:01:08.681Z,98711.15
2018-04-19T10:03:45.749Z,98711.81
2018-04-19T10:06:16.769Z,98711.75
2018-04-19T10:08:47.762Z,98708.91
2018-04-19T10:11:18.809Z,98708.86
2018-04-19T10:13:49.786Z,98702.97
2018-04-19T10:16:20.745Z,98697.89
2018-04-19T10:18:51.798Z,98694.70
2018-04-19T10:21:22.847Z,98700.83
2018-04-19T10:23:53.899Z,98695.59
2018-04-19T10:26:25.062Z,98687.84
2018-04-19T10:28:56.032Z,98694.86
2018-04-19T10:31:27.080Z,98694.18
2018-04-19T10:33:58.115Z,98681.36
2018-04-19T10:36:29.191Z,98680.83
2018-04-19T10:39:00.186Z,98682.84
2018-04-19T10:41:31.193Z,98685.83
2018-04-19T10:44:02.204Z,98688.77
2018-04-19T10:46:33.235Z,98685.25
2018-04-19T10:49:04.254Z,98671.84
2018-04-19T10:51:35.287Z,98679.11
2018-04-19T10:54:06.355Z,98666.14
2018-04-19T10:56:37.322Z,98653.32
2018-04-19T10:59:08.354Z,98663.17
2018-04-19T11:01:39.362Z,98658.44
2018-04-19T11:04:10.432Z,98669.69
2018-04-19T11:06:41.470Z,98661.11
2018-04-19T11:09:12.509Z,98664.20
2018-04-19T11:11:43.522Z,98663.86
2018-04-19T11:14:14.518Z,98665.99
2018-04-19T11:16:45.527Z,98672.84
2018-04-19T11:19:16.539Z,98663.70
2018-04-19T11:21:47.628Z,98665.93
2018-04-19T11:24:18.641Z,98659.50
2018-04-19T11:26:49.671Z,98659.53
2018-04-19T11:29:20.724Z,98661.72
2018-04-19T11:31:51.768Z,98663.27
2018-04-19T11:34:22.726Z,98669.93
2018-04-19T11:36:53.732Z,98661.95
2018-04-19T11:39:24.832Z,98654.42
2018-04-19T11:41:55.816Z,98651.12
2018-04-19T11:44:26.836Z,98644.00
2018-04-19T11:46:57.831Z,98647.22
2018-04-19T11:49:28.854Z,98654.52
2018-04-19T11:51:59.836Z,98649.50
2018-04-19T11:54:30.871Z,98648.31
2018-04-19T11:57:01.921Z,98645.73
2018-04-19T11:59:32.923Z,98648.11
2018-04-19T12:02:03.991Z,98641.46
2018-04-19T12:04:35.007Z,98637.98
2018-04-19T12:07:06.001Z,98636.27
2018-04-19T12:09:37.118Z,98637.81
2018-04-19T12:12:08.136Z,98638.71
2018-04-19T12:14:39.157Z,98641.88
2018-04-19T12:17:10.200Z,98639.23
2018-04-19T12:19:41.220Z,98633.78
2018-04-19T12:22:12.847Z,98630.55
2018-04-19T12:24:43.871Z,98633.11
2018-04-19T12:27:14.892Z,98631.12
2018-04-19T12:29:45.930Z,98627.67
2018-04-19T12:32:16.971Z,98620.64
2018-04-19T12:34:48.034Z,98618.66
2018-04-19T12:37:19.072Z,98621.49
2018-04-19T12:39:50.056Z,98618.48
2018-04-19T12:42:21.054Z,98617.63
2018-04-19T12:44:52.044Z,98618.78
2018-04-19T12:47:23.076Z,98614.88
2018-04-19T12:49:54.099Z,98616.34
2018-04-19T12:52:25.118Z,98610.55
2018-04-19T12:54:56.118Z,98608.56
2018-04-19T12:57:27.091Z,98605.38
2018-04-19T12:59:58.070Z,98600.97
2018-04-19T13:02:29.112Z,98596.95
2018-04-19T13:05:00.204Z,98603.05
2018-04-19T13:07:31.221Z,98592.27
2018-04-19T13:10:02.227Z,98589.25
2018-04-19T13:12:33.200Z,98584.88
2018-04-19T13:15:04.154Z,98582.67
2018-04-19T13:17:35.226Z,98578.30
2018-04-19T13:20:06.253Z,98578.30
2018-04-19T13:22:37.297Z,98571.77
2018-04-19T13:25:08.304Z,98562.05
2018-04-19T13:27:39.311Z,98569.89
2018-04-19T13:30:10.371Z,98564.22
2018-04-19T13:32:41.373Z,98559.63
2018-04-19T13:35:12.440Z,98550.80
2018-04-19T13:37:43.452Z,98548.00
2018-04-19T13:40:14.518Z,98548.59
2018-04-19T13:42:45.533Z,98547.53
2018-04-19T13:45:16.623Z,98534.42
2018-04-19T13:47:47.644Z,98538.80
2018-04-19T13:50:18.626Z,98537.67
2018-04-19T13:52:49.591Z,98531.97
2018-04-19T13:55:20.624Z,98528.97
2018-04-19T13:57:51.645Z,98521.41
2018-04-19T14:00:22.683Z,98514.73
2018-04-19T14:02:53.675Z,98514.09
2018-04-19T14:05:24.764Z,98514.17
2018-04-19T14:07:55.771Z,98516.62
2018-04-19T14:10:26.776Z,98514.39
2018-04-19T14:12:57.810Z,98520.11
2018-04-19T14:15:28.827Z,98513.72
2018-04-19T14:17:59.827Z,98514.20
2018-04-19T14:20:30.852Z,98503.09
2018-04-19T14:23:01.869Z,98498.06
2018-04-19T14:25:32.848Z,98505.75
2018-04-19T14:28:03.890Z,98499.13
2018-04-19T14:30:34.896Z,98501.59
2018-04-19T14:33:05.928Z,98494.55
2018-04-19T14:35:36.909Z,98486.47
2018-04-19T14:38:07.946Z,98484.89
2018-04-19T14:40:38.958Z,98484.07
2018-04-19T14:43:09.940Z,98480.79
2018-04-19T14:45:40.968Z,98487.14
2018-04-19T14:48:11.969Z,98479.09
2018-04-19T14:50:42.987Z,98486.67
2018-04-19T14:53:13.960Z,98482.66
2018-04-19T14:55:44.995Z,98472.59
2018-04-19T14:58:16.010Z,98473.05
2018-04-19T15:00:47.237Z,98482.00
2018-04-19T15:03:18.172Z,98479.17
2018-04-19T15:05:49.178Z,98480.71
2018-04-19T15:08:20.237Z,98483.81
2018-04-19T15:10:51.284Z,98477.83
2018-04-19T15:13:22.341Z,98478.61
2018-04-19T15:15:53.319Z,98480.35
2018-04-19T15:18:24.286Z,98479.51
2018-04-19T15:20:55.297Z,98472.12
2018-04-19T15:23:26.371Z,98472.41
2018-04-19T15:25:57.413Z,98470.44
2018-04-19T15:28:28.439Z,98469.08
2018-04-19T15:30:59.424Z,98468.61
2018-04-19T15:33:30.423Z,98468.42
2018-04-19T15:36:01.468Z,98473.14
2018-04-19T15:38:32.421Z,98465.08
2018-04-19T15:41:03.591Z,98467.20
2018-04-19T15:43:34.666Z,98461.48
2018-04-19T15:46:05.715Z,98458.68
2018-04-19T15:48:36.767Z,98464.04
2018-04-19T15:51:07.778Z,98470.91
2018-04-19T15:53:38.782Z,98466.95
2018-04-19T15:56:09.793Z,98468.77
2018-04-19T15:58:40.819Z,98464.28
2018-04-19T16:01:11.783Z,98458.80
2018-04-19T16:03:42.819Z,98454.76
2018-04-19T16:06:13.802Z,98460.20
2018-04-19T16:08:44.796Z,98457.09
2018-04-19T16:11:15.891Z,98448.77
2018-04-19T16:13:46.917Z,98456.64
2018-04-19T16:16:17.960Z,98451.25
2018-04-19T16:18:49.065Z,98456.77
2018-04-19T16:21:20.213Z,98451.88
2018-04-19T16:23:51.307Z,98455.50
2018-04-19T16:26:22.368Z,98452.93
2018-04-19T16:28:53.402Z,98451.22
2018-04-19T16:31:24.416Z,98445.81
2018-04-19T16:33:55.437Z,98447.88
2018-04-19T16:36:26.421Z,98448.36
2018-04-19T16:38:57.422Z,98441.67
2018-04-19T16:41:28.409Z,98446.59
2018-04-19T16:43:59.532Z,98437.23
2018-04-19T16:46:30.515Z,98434.84
2018-04-19T16:49:01.527Z,98432.65
2018-04-19T16:51:32.553Z,98438.66
2018-04-19T16:54:03.565Z,98443.12
2018-04-19T16:56:34.652Z,98441.45
2018-04-19T16:59:05.671Z,98438.63
2018-04-19T17:01:36.652Z,98433.41
2018-04-19T17:04:07.618Z,98437.55
2018-04-19T17:06:38.700Z,98435.98
2018-04-19T17:09:09.678Z,98438.84
2018-04-19T17:11:40.701Z,98431.32
2018-04-19T17:14:11.704Z,98433.95
2018-04-19T17:16:42.730Z,98426.50
2018-04-19T17:19:13.728Z,98432.38
2018-04-19T17:21:44.730Z,98430.23
2018-04-19T17:24:15.754Z,98433.17
2018-04-19T17:26:46.820Z,98436.55
2018-04-19T17:29:17.854Z,98438.13
2018-04-19T17:31:48.885Z,98440.34
2018-04-19T17:34:19.954Z,98443.80
2018-04-19T17:36:50.999Z,98445.52
2018-04-19T17:39:22.127Z,98445.37
2018-04-19T17:41:53.196Z,98442.48
2018-04-19T17:44:24.238Z,98449.03
2018-04-19T17:46:55.268Z,98444.77
2018-04-19T17:49:26.245Z,98449.95
2018-04-19T17:51:57.258Z,98445.22
2018-04-19T17:54:28.371Z,98444.87
2018-04-19T17:56:59.530Z,98444.89
2018-04-19T17:59:30.476Z,98446.27
2018-04-19T18:02:01.463Z,98449.80
2018-04-19T18:04:32.528Z,98449.70
2018-04-19T18:07:03.540Z,98453.72
2018-04-19T18:09:34.604Z,98452.67
2018-04-19T18:12:05.641Z,98459.68
2018-04-19T18:14:36.794Z,98454.55
2018-04-19T18:17:07.788Z,98456.06
2018-04-19T18:19:38.839Z,98459.27
2018-04-19T18:22:09.798Z,98459.97
2018-04-19T18:24:40.888Z,98460.60
2018-04-19T18:27:11.911Z,98462.23
2018-04-19T18:29:42.918Z,98467.91
2018-04-19T18:32:13.936Z,98467.83
2018-04-19T18:34:44.925Z,98469.06
2018-04-19T18:37:15.927Z,98478.70
2018-04-19T18:39:46.944Z,98476.15
2018-04-19T18:42:17.993Z,98472.34
2018-04-19T18:44:49.026Z,98480.31
2018-04-19T18:47:20.024Z,98478.59
2018-04-19T18:49:51.063Z,98481.00
2018-04-19T18:52:22.078Z,98484.24
2018-04-19T18:54:53.083Z,98483.28
2018-04-19T18:57:24.113Z,98482.58
2018-04-19T18:59:55.164Z,98482.41
2018-04-19T19:02:26.175Z,98482.90
2018-04-19T19:04:57.140Z,98484.70
2018-04-19T19:07:28.149Z,98486.04
2018-04-19T19:09:59.152Z,98494.79
2018-04-19T19:12:30.228Z,98489.91
2018-04-19T19:15:01.228Z,98502.96
2018-04-19T19:17:44.574Z,98501.27
2018-04-19T19:20:15.672Z,98506.05
2018-04-19T19:22:46.663Z,98507.33
2018-04-19T19:25:17.679Z,98510.88
2018-04-19T19:27:48.702Z,98507.37
2018-04-19T19:30:19.739Z,98503.05
2018-04-19T19:32:50.773Z,98509.55
2018-04-19T19:35:21.826Z,98514.18
2018-04-19T19:37:52.828Z,98511.66
2018-04-19T19:40:23.885Z,98510.12
2018-04-19T19:42:54.865Z,98514.87
2018-04-19T19:45:25.898Z,98513.30
2018-04-19T19:47:56.866Z,98514.56
2018-04-19T19:50:27.996Z,98514.37
2018-04-19T19:52:59.074Z,98510.39
2018-04-19T19:55:30.179Z,98520.05
2018-04-19T19:58:01.258Z,98513.17
2018-04-19T20:00:32.320Z,98512.16
2018-04-19T20:03:03.331Z,98510.62
2018-04-19T20:05:34.358Z,98512.11
2018-04-19T20:08:05.388Z,98511.09
2018-04-19T20:10:36.449Z,98516.50
2018-04-19T20:13:10.527Z,98518.92
2018-04-19T20:15:41.571Z,98517.91
2018-04-19T20:18:12.611Z,98515.55
2018-04-19T20:20:43.622Z,98513.41
2018-04-19T20:23:14.634Z,98509.56
2018-04-19T20:25:45.690Z,98511.09
2018-04-19T20:28:16.705Z,98514.36
2018-04-19T20:30:47.729Z,98517.47
2018-04-19T20:33:18.801Z,98511.20
2018-04-19T20:35:50.733Z,98516.59
2018-04-19T20:38:21.732Z,98516.88
2018-04-19T20:40:52.713Z,98516.66
2018-04-19T20:43:23.747Z,98513.59
2018-04-19T20:45:54.748Z,98516.55
2018-04-19T20:48:25.793Z,98514.20
2018-04-19T20:50:56.804Z,98513.83
2018-04-19T20:53:27.798Z,98515.45
2018-04-19T20:55:58.823Z,98515.89
2018-04-19T20:58:29.877Z,98513.27
2018-04-19T21:01:00.910Z,98518.48
2018-04-19T21:03:31.949Z,98513.98
2018-04-19T21:06:02.982Z,98518.16
2018-04-19T21:08:34.017Z,98518.86
2018-04-19T21:11:05.022Z,98524.07
2018-04-19T21:13:36.075Z,98519.17
2018-04-19T21:16:07.207Z,98513.73
2018-04-19T21:18:38.251Z,98510.94
2018-04-19T21:21:09.279Z,98510.56
2018-04-19T21:23:40.340Z,98513.27
2018-04-19T21:26:11.382Z,98514.87
2018-04-19T21:28:42.471Z,98513.17
2018-04-19T21:31:13.510Z,98511.44
2018-04-19T21:33:44.527Z,98512.09
2018-04-19T21:36:15.640Z,98513.19
2018-04-19T21:38:46.644Z,98510.55
2018-04-19T21:41:17.655Z,98511.65
2018-04-19T21:43:48.650Z,98508.88
2018-04-19T21:46:19.655Z,98513.56
2018-04-19T21:48:50.616Z,98510.78
2018-04-19T21:51:21.634Z,98509.04
2018-04-19T21:53:52.647Z,98506.66
2018-04-19T21:56:23.629Z,98505.33
2018-04-19T21:58:54.637Z,98505.88
2018-04-19T22:01:25.673Z,98502.70
2018-04-19T22:03:56.711Z,98498.70
2018-04-19T22:06:27.691Z,98499.25
2018-04-19T22:08:58.723Z,98500.59
2018-04-19T22:11:29.740Z,98498.20
2018-04-19T22:14:00.767Z,98500.33
2018-04-19T22:16:31.767Z,98501.52
2018-04-19T22:19:02.796Z,98500.34
2018-04-19T22:21:33.815Z,98495.95
2018-04-19T22:24:04.786Z,98500.48
2018-04-19T22:26:35.778Z,98497.41
2018-04-19T22:29:06.820Z,98498.34
2018-04-19T22:31:37.854Z,98491.94
2018-04-19T22:34:08.825Z,98495.55
2018-04-19T22:36:39.839Z,98490.98
2018-04-19T22:39:10.865Z,98487.55
2018-04-19T22:41:41.819Z,98492.85
2018-04-19T22:44:12.828Z,98492.20
2018-04-19T22:46:43.887Z,98485.67
2018-04-19T22:49:14.857Z,98486.87
2018-04-19T22:51:45.882Z,98485.69
2018-04-19T22:54:16.907Z,98485.02
2018-04-19T22:56:47.956Z,98486.20
2018-04-19T22:59:18.997Z,98484.48
2018-04-19T23:01:49.972Z,98481.81
2018-04-19T23:04:20.977Z,98483.69
2018-04-19T23:06:52.016Z,98477.16
2018-04-19T23:09:23.106Z,98478.36
2018-04-19T23:11:54.143Z,98476.51
2018-04-19T23:14:25.204Z,98484.36
2018-04-19T23:16:56.214Z,98483.69
2018-04-19T23:19:27.244Z,98479.57
2018-04-19T23:21:58.288Z,98481.41
2018-04-19T23:24:29.334Z,98478.89
2018-04-19T23:27:00.347Z,98479.02
2018-04-19T23:29:31.415Z,98478.36
2018-04-19T23:32:02.452Z,98476.34
2018-04-19T23:34:33.494Z,98473.16
2018-04-19T23:37:04.617Z,98473.42
2018-04-19T23:39:35.677Z,98471.53
2018-04-19T23:42:06.731Z,98476.19
2018-04-19T23:44:37.725Z,98477.66
2018-04-19T23:47:08.813Z,98473.40
2018-04-19T23:49:39.837Z,98472.45
2018-04-19T23:52:10.862Z,98472.16
2018-04-19T23:54:41.920Z,98465.50
2018-04-19T23:57:12.972Z,98468.01
2018-04-19T23:59:44.015Z,98468.28
